Historique des mesures à Cassis (13260), France
Quotidien Résumé Janvier 16, 2018 Unités:  Métrique/US    US   Métrique
« Précédent (Jour)
Suivant (Jour) »
Quotidien Hebdomadaire Mensuel Annuel Période au choix
  Maximum: Minimum: Moyenne:
Température: 32 °F /  TemperatureC °C 52.5 °F /  11.4 °C 54.7 °F /  12.6 °C
Point de rosée: 32 °F /  DewpointC °C 43.9 °F /  6.6 °C 46.8 °F /  8.2 °C
Humidité: Humidity % 66 % 70 %
Vitesse du vent: WindSpeedKMH mph /  0 km/h - 9 mph /  14.5 km/h
Rafales: WindSpeedGustKMH mph /  0 km/h - -
Vent:- - SW
Pression: 0 in /  PressurehPa hPa 29.8 in /  1008.4 hPa -
Précipitations: 0.0 in /  0 mm    
Historical Graphs
 
 
Mesures pour : Janvier 16, 2018
Heure Temperature Point de rosée Pression Vent Vitesse du vent Rafales Humidité Pluie (par heure)
32 °F /  TemperatureC °C 32 °F /  DewpointC °C 0 in /  PressurehPa hPa Calm     Humidity % HourlyPrecipMM in /  0 mm
00:12 53.2 °F /  11.8 °C 45.5 °F /  7.5 °C 30 in /  1016.5 hPa Calm   13.4 mph /  21.6 km/h 75 % 0.0 in /  0 mm
01:12 53.4 °F /  11.9 °C 45.7 °F /  7.6 °C 30 in /  1015.5 hPa SW 15.8 mph /  25.4 km/h 15.8 mph /  25.4 km/h 75 % 0.0 in /  0 mm
02:12 53.8 °F /  12.1 °C 46.4 °F /  8.0 °C 30 in /  1014.8 hPa Calm   4.0 mph /  6.4 km/h 76 % 0.0 in /  0 mm
03:12 53.6 °F /  12.0 °C 45.5 °F /  7.5 °C 29.9 in /  1014.1 hPa West 7.2 mph /  11.6 km/h 7.2 mph /  11.6 km/h 74 % 0.0 in /  0 mm
04:12 53.8 °F /  12.1 °C 43.9 °F /  6.6 °C 29.9 in /  1013.4 hPa WNW 6.4 mph /  10.3 km/h 9.7 mph /  15.6 km/h 69 % 0.0 in /  0 mm
05:12 54 °F /  12.2 °C 44.8 °F /  7.1 °C 29.9 in /  1013.1 hPa West 10.5 mph /  16.9 km/h 10.5 mph /  16.9 km/h 71 % 0.0 in /  0 mm
06:12 52.5 °F /  11.4 °C 45.5 °F /  7.5 °C 29.9 in /  1012.8 hPa West 2.9 mph /  4.7 km/h 6.4 mph /  10.3 km/h 77 % 0.0 in /  0 mm
07:12 52.7 °F /  11.5 °C 46.4 °F /  8.0 °C 29.9 in /  1012.4 hPa Calm   5.0 mph /  8 km/h 79 % 0.0 in /  0 mm
08:12 54.1 °F /  12.3 °C 47.8 °F /  8.8 °C 29.9 in /  1012.4 hPa North 2.9 mph /  4.7 km/h 10.8 mph /  17.4 km/h 79 % 0.0 in /  0 mm
09:12 55 °F /  12.8 °C 48.2 °F /  9.0 °C 29.9 in /  1012.4 hPa Calm     78 % 0.0 in /  0 mm
10:12 55.8 °F /  13.2 °C 49.3 °F /  9.6 °C 29.9 in /  1012.8 hPa Calm   11.9 mph /  19.2 km/h 79 % 0.0 in /  0 mm
11:12 57 °F /  13.9 °C 49.8 °F /  9.9 °C 29.9 in /  1012.8 hPa WNW 15.4 mph /  24.8 km/h 30.6 mph /  49.2 km/h 77 % 0.0 in /  0 mm
12:12 58.6 °F /  14.8 °C 50 °F /  10.0 °C 29.9 in /  1012.4 hPa West 14.3 mph /  23 km/h 14.3 mph /  23 km/h 73 % 0.0 in /  0 mm
14:12 59.7 °F /  15.4 °C 48.4 °F /  9.1 °C 29.8 in /  1010.7 hPa WNW 21.9 mph /  35.2 km/h 43.1 mph /  69.4 km/h 66 % 0.0 in /  0 mm
16:12 58.8 °F /  14.9 °C 49.1 °F /  9.5 °C 29.8 in /  1010.4 hPa WNW 3.5 mph /  5.6 km/h 16.9 mph /  27.2 km/h 70 % 0.0 in /  0 mm
18:12 57.4 °F /  14.1 °C 49.1 °F /  9.5 °C 29.8 in /  1010.0 hPa NNE 17.7 mph /  28.5 km/h 17.7 mph /  28.5 km/h 74 % 0.0 in /  0 mm
20:12 57.9 °F /  14.4 °C 48.9 °F /  9.4 °C 29.8 in /  1009.0 hPa North 10.5 mph /  16.9 km/h 27.7 mph /  44.6 km/h 72 % 0.0 in /  0 mm
21:12 58.1 °F /  14.5 °C 49.1 °F /  9.5 °C 29.8 in /  1009.4 hPa NW 16.9 mph /  27.2 km/h 23.0 mph /  37 km/h 72 % 0.0 in /  0 mm
22:12 58.3 °F /  14.6 °C 49.3 °F /  9.6 °C 29.8 in /  1009.0 hPa WNW 19.5 mph /  31.4 km/h 19.5 mph /  31.4 km/h 72 % 0.0 in /  0 mm
23:12 58.1 °F /  14.5 °C 48.7 °F /  9.3 °C 29.8 in /  1008.4 hPa WNW 23.0 mph /  37 km/h 27.4 mph /  44.1 km/h 71 % 0.0 in /  0 mm
Observations météo à CASSIS
WU-History script by Weather Underground - 1 mb